createdAt,value
2018-11-20T00:00:38.368Z,83.20
2018-11-20T00:03:27.316Z,83.70
2018-11-20T00:06:16.642Z,83.40
2018-11-20T00:09:05.590Z,83.30
2018-11-20T00:11:53.136Z,82.90
2018-11-20T00:14:32.045Z,83.30
2018-11-20T00:17:20.969Z,82.70
2018-11-20T00:20:12.872Z,82.50
2018-11-20T00:23:00.273Z,82.70
2018-11-20T00:25:52.104Z,82.70
2018-11-20T00:28:33.382Z,82.70
2018-11-20T00:31:21.140Z,82.90
2018-11-20T00:34:13.016Z,83.70
2018-11-20T00:37:01.960Z,82.50
2018-11-20T00:39:45.995Z,82.20
2018-11-20T00:42:31.367Z,82.40
2018-11-20T00:45:17.466Z,82.40
2018-11-20T00:48:05.030Z,82.40
2018-11-20T00:51:09.324Z,82.60
2018-11-20T00:53:54.940Z,82.70
2018-11-20T00:57:02.987Z,82.70
2018-11-20T01:00:12.221Z,83.00
2018-11-20T01:02:58.931Z,84.10
2018-11-20T01:05:36.478Z,82.90
2018-11-20T01:08:28.338Z,82.40
2018-11-20T01:11:35.405Z,82.50
2018-11-20T01:14:23.158Z,83.00
2018-11-20T01:17:19.335Z,82.80
2018-11-20T01:20:08.335Z,82.90
2018-11-20T01:23:12.458Z,82.30
2018-11-20T01:26:04.317Z,82.30
2018-11-20T01:28:52.005Z,82.50
2018-11-20T01:31:39.639Z,83.10
2018-11-20T01:34:20.564Z,83.30
2018-11-20T01:37:17.541Z,83.70
2018-11-20T01:40:09.471Z,83.50
2018-11-20T01:43:13.723Z,83.20
2018-11-20T01:46:01.690Z,83.80
2018-11-20T01:48:42.172Z,83.70
2018-11-20T01:51:29.972Z,83.60
2018-11-20T01:54:18.882Z,86.80
2018-11-20T01:57:06.708Z,83.60
2018-11-20T01:59:45.628Z,83.30
2018-11-20T02:02:33.352Z,83.30
2018-11-20T02:05:22.310Z,83.40
2018-11-20T02:08:10.304Z,83.50
2018-11-20T02:11:08.014Z,83.70
2018-11-20T02:14:06.284Z,83.10
2018-11-20T02:17:21.843Z,83.40
2018-11-20T02:20:13.441Z,83.70
2018-11-20T02:23:02.217Z,83.20
2018-11-20T02:25:56.469Z,83.80
2018-11-20T02:28:48.376Z,86.90
2018-11-20T02:31:35.697Z,83.70
2018-11-20T02:34:24.896Z,83.50
2018-11-20T02:37:12.634Z,84.10
2018-11-20T02:40:08.703Z,84.10
2018-11-20T02:42:51.624Z,83.90
2018-11-20T02:45:40.998Z,84.10
2018-11-20T02:48:29.582Z,84.70
2018-11-20T02:51:33.825Z,84.70
2018-11-20T02:54:22.768Z,88.60
2018-11-20T02:57:12.783Z,85.00
2018-11-20T03:00:00.246Z,84.80
2018-11-20T03:02:49.166Z,84.70
2018-11-20T03:05:41.723Z,85.20
2018-11-20T03:08:48.683Z,85.20
2018-11-20T03:11:49.590Z,85.10
2018-11-20T03:14:33.443Z,85.20
2018-11-20T03:17:31.353Z,85.20
2018-11-20T03:20:27.530Z,85.30
2018-11-20T03:23:19.668Z,85.30
2018-11-20T03:26:07.665Z,84.90
2018-11-20T03:29:05.787Z,85.10
2018-11-20T03:32:09.522Z,85.40
2018-11-20T03:34:48.589Z,84.80
2018-11-20T03:37:55.948Z,84.50
2018-11-20T03:40:43.418Z,84.90
2018-11-20T03:43:28.048Z,85.20
2018-11-20T03:46:14.378Z,84.80
2018-11-20T03:49:03.310Z,84.60
2018-11-20T03:52:10.189Z,84.70
2018-11-20T03:54:57.966Z,84.50
2018-11-20T03:57:45.675Z,84.90
2018-11-20T04:00:36.326Z,85.10
2018-11-20T04:03:28.855Z,85.00
2018-11-20T04:06:09.537Z,84.50
2018-11-20T04:08:57.311Z,84.70
2018-11-20T04:11:46.264Z,84.80
2018-11-20T04:14:44.049Z,85.30
2018-11-20T04:17:34.293Z,85.20
2018-11-20T04:20:23.610Z,85.20
2018-11-20T04:23:15.540Z,84.60
2018-11-20T04:26:03.056Z,84.20
2018-11-20T04:28:50.864Z,84.60
2018-11-20T04:32:02.903Z,84.50
2018-11-20T04:34:41.775Z,84.10
2018-11-20T04:37:39.651Z,84.50
2018-11-20T04:40:40.600Z,84.20
2018-11-20T04:43:28.388Z,84.40
2018-11-20T04:46:15.923Z,84.50
2018-11-20T04:49:16.902Z,84.40
2018-11-20T04:51:55.579Z,84.40
2018-11-20T04:54:47.381Z,85.40
2018-11-20T04:57:51.537Z,84.50
2018-11-20T05:00:46.329Z,84.80
2018-11-20T05:03:27.405Z,84.90
2018-11-20T05:06:12.435Z,85.10
2018-11-20T05:09:05.558Z,85.20
2018-11-20T05:11:49.997Z,86.60
2018-11-20T05:14:41.579Z,85.20
2018-11-20T05:17:42.609Z,85.00
2018-11-20T05:20:37.604Z,84.90
2018-11-20T05:23:32.495Z,85.00
2018-11-20T05:26:19.809Z,85.10
2018-11-20T05:29:07.237Z,84.70
2018-11-20T05:32:14.314Z,84.70
2018-11-20T05:34:59.402Z,85.00
2018-11-20T05:37:43.723Z,85.00
2018-11-20T05:40:31.243Z,84.30
2018-11-20T05:43:20.718Z,84.70
2018-11-20T05:46:27.673Z,84.50
2018-11-20T05:49:15.264Z,84.50
2018-11-20T05:52:19.112Z,84.20
2018-11-20T05:55:02.915Z,84.00
2018-11-20T05:57:47.375Z,84.00
2018-11-20T06:00:39.146Z,83.60
2018-11-20T06:03:26.243Z,83.70
2018-11-20T06:06:08.740Z,83.90
2018-11-20T06:09:06.658Z,83.80
2018-11-20T06:12:00.458Z,83.30
2018-11-20T06:14:48.144Z,86.70
2018-11-20T06:17:49.580Z,83.90
2018-11-20T06:20:50.163Z,83.40
2018-11-20T06:23:37.942Z,83.80
2018-11-20T06:26:39.089Z,83.10
2018-11-20T06:29:26.633Z,82.70
2018-11-20T06:32:18.519Z,82.50
2018-11-20T06:35:07.083Z,82.30
2018-11-20T06:38:04.987Z,82.60
2018-11-20T06:40:53.911Z,83.00
2018-11-20T06:43:41.752Z,82.30
2018-11-20T06:46:24.086Z,81.90
2018-11-20T06:49:19.170Z,82.00
2018-11-20T06:52:17.187Z,82.40
2018-11-20T06:54:56.001Z,81.90
2018-11-20T06:57:47.934Z,82.00
2018-11-20T07:00:35.352Z,81.40
2018-11-20T07:03:23.208Z,81.20
2018-11-20T07:06:12.172Z,81.10
2018-11-20T07:08:58.821Z,81.30
2018-11-20T07:11:40.022Z,80.50
2018-11-20T07:14:36.694Z,80.40
2018-11-20T07:17:33.946Z,81.50
2018-11-20T07:20:14.916Z,79.50
2018-11-20T07:23:01.744Z,83.60
2018-11-20T07:25:53.597Z,82.00
2018-11-20T07:28:42.551Z,78.70
2018-11-20T07:31:34.269Z,76.70
2018-11-20T07:34:23.229Z,78.50
2018-11-20T07:37:12.838Z,79.70
2018-11-20T07:40:16.875Z,77.00
2018-11-20T07:43:06.107Z,78.30
2018-11-20T07:45:55.053Z,76.30
2018-11-20T07:48:44.014Z,75.60
2018-11-20T07:51:45.055Z,74.30
2018-11-20T07:54:36.748Z,74.70
2018-11-20T07:57:19.342Z,75.10
2018-11-20T08:00:26.505Z,73.40
2018-11-20T08:03:15.419Z,73.40
2018-11-20T08:06:10.404Z,74.40
2018-11-20T08:08:49.963Z,76.00
2018-11-20T08:11:31.061Z,76.10
2018-11-20T08:14:22.738Z,76.40
2018-11-20T08:17:29.639Z,75.50
2018-11-20T08:20:16.779Z,76.10
2018-11-20T08:23:09.199Z,87.60
2018-11-20T08:29:07.844Z,74.80
2018-11-20T08:31:55.628Z,73.70
2018-11-20T08:34:42.863Z,75.20
2018-11-20T08:37:43.325Z,74.40
2018-11-20T08:40:44.503Z,71.10
2018-11-20T08:43:30.215Z,66.40
2018-11-20T08:46:17.935Z,62.50
2018-11-20T08:49:05.311Z,60.60
2018-11-20T08:51:57.416Z,63.80
2018-11-20T08:54:55.188Z,62.60
2018-11-20T08:57:40.546Z,62.10
2018-11-20T09:00:35.501Z,60.90
2018-11-20T09:03:27.189Z,60.10
2018-11-20T09:06:31.069Z,59.60
2018-11-20T09:09:38.277Z,60.30
2018-11-20T09:12:30.015Z,59.30
2018-11-20T09:15:14.504Z,56.00
2018-11-20T09:18:07.583Z,57.40
2018-11-20T09:21:02.317Z,60.80
2018-11-20T09:23:54.016Z,60.70
2018-11-20T09:26:56.004Z,60.30
2018-11-20T09:29:43.645Z,59.70
2018-11-20T09:32:19.323Z,60.60
2018-11-20T09:35:17.618Z,61.60
2018-11-20T09:37:59.512Z,60.10
2018-11-20T09:41:00.208Z,59.90
2018-11-20T09:43:54.043Z,59.70
2018-11-20T09:46:41.714Z,59.30
2018-11-20T09:49:42.575Z,60.40
2018-11-20T09:52:31.521Z,61.30
2018-11-20T09:55:26.147Z,63.20
2018-11-20T09:58:11.219Z,63.10
2018-11-20T10:00:58.729Z,61.30
2018-11-20T10:03:46.364Z,60.90
2018-11-20T10:06:35.255Z,61.40
2018-11-20T10:09:32.587Z,62.00
2018-11-20T10:12:21.510Z,62.00
2018-11-20T10:15:25.953Z,61.60
2018-11-20T10:18:13.409Z,60.70
2018-11-20T10:21:20.669Z,59.70
2018-11-20T10:24:08.321Z,59.60
2018-11-20T10:27:00.724Z,60.00
2018-11-20T10:29:50.480Z,60.30
2018-11-20T10:32:38.724Z,59.50
2018-11-20T10:35:30.143Z,59.20
2018-11-20T10:38:21.931Z,58.60
2018-11-20T10:41:16.899Z,57.20
2018-11-20T10:44:08.352Z,56.30
2018-11-20T10:47:12.162Z,53.90
2018-11-20T10:50:06.440Z,53.30
2018-11-20T10:52:59.348Z,52.20
2018-11-20T10:55:46.718Z,52.50
2018-11-20T10:58:34.488Z,53.20
2018-11-20T11:01:41.438Z,52.60
2018-11-20T11:04:30.857Z,52.10
2018-11-20T11:07:20.646Z,51.90
2018-11-20T11:09:59.051Z,52.70
2018-11-20T11:12:59.507Z,53.40
2018-11-20T11:15:47.185Z,54.40
2018-11-20T11:18:46.533Z,55.40
2018-11-20T11:21:34.570Z,55.80
2018-11-20T11:24:23.522Z,56.20
2018-11-20T11:27:12.484Z,55.70
2018-11-20T11:30:07.441Z,55.50
2018-11-20T11:32:56.626Z,55.00
2018-11-20T11:35:44.645Z,53.50
2018-11-20T11:38:24.556Z,51.50
2018-11-20T11:41:13.479Z,50.10
2018-11-20T11:44:01.388Z,48.00
2018-11-20T11:46:53.087Z,46.10
2018-11-20T11:49:48.030Z,45.50
2018-11-20T11:52:35.724Z,45.50
2018-11-20T11:55:42.910Z,44.70
2018-11-20T11:58:41.234Z,45.20
2018-11-20T12:04:10.575Z,42.00
2018-11-20T12:06:51.986Z,39.60
2018-11-20T12:09:40.956Z,39.30
2018-11-20T12:12:29.889Z,41.60
2018-11-20T12:15:30.934Z,41.30
2018-11-20T12:18:35.906Z,43.70
2018-11-20T12:21:24.783Z,44.40
2018-11-20T12:24:05.832Z,44.60
2018-11-20T12:26:53.334Z,44.30
2018-11-20T12:29:55.510Z,45.30
2018-11-20T12:32:49.202Z,46.90
2018-11-20T12:35:36.188Z,46.00
2018-11-20T12:38:24.041Z,47.60
2018-11-20T12:41:11.577Z,47.90
2018-11-20T12:44:20.476Z,49.70
2018-11-20T12:47:16.635Z,49.70
2018-11-20T12:50:05.574Z,50.50
2018-11-20T12:52:47.318Z,49.60
2018-11-20T12:55:31.027Z,48.50
2018-11-20T12:58:19.782Z,47.40
2018-11-20T13:01:07.412Z,48.10
2018-11-20T13:03:50.019Z,48.10
2018-11-20T13:06:37.888Z,46.00
2018-11-20T13:09:29.740Z,45.60
2018-11-20T13:12:18.682Z,45.00
2018-11-20T13:15:22.777Z,44.00
2018-11-20T13:18:14.671Z,43.00
2018-11-20T13:21:12.480Z,43.20
2018-11-20T13:24:01.448Z,42.70
2018-11-20T13:26:49.201Z,42.60
2018-11-20T13:29:47.262Z,41.90
2018-11-20T13:32:35.358Z,42.40
2018-11-20T13:35:34.602Z,42.00
2018-11-20T13:38:19.269Z,41.60
2018-11-20T13:41:47.030Z,39.80
2018-11-20T13:44:39.655Z,38.80
2018-11-20T13:47:26.962Z,38.90
2018-11-20T13:50:11.803Z,39.50
2018-11-20T13:53:11.916Z,39.70
2018-11-20T13:56:14.521Z,39.20
2018-11-20T13:59:02.190Z,40.20
2018-11-20T14:02:00.212Z,41.90
2018-11-20T14:04:48.792Z,41.70
2018-11-20T14:07:46.467Z,41.70
2018-11-20T14:10:26.904Z,41.50
2018-11-20T14:13:14.715Z,41.70
2018-11-20T14:16:06.885Z,42.30
2018-11-20T14:18:58.906Z,41.80
2018-11-20T14:21:48.017Z,42.40
2018-11-20T14:24:37.074Z,41.50
2018-11-20T14:27:31.923Z,41.50
2018-11-20T14:30:19.575Z,40.40
2018-11-20T14:33:08.480Z,40.10
2018-11-20T14:36:06.485Z,40.30
2018-11-20T14:38:58.063Z,41.50
2018-11-20T14:41:47.396Z,42.20
2018-11-20T14:44:27.720Z,42.80
2018-11-20T14:47:33.455Z,42.80
2018-11-20T14:50:19.464Z,44.80
2018-11-20T14:53:17.464Z,45.20
2018-11-20T14:56:04.422Z,46.20
2018-11-20T14:58:56.125Z,48.80
2018-11-20T15:01:57.256Z,51.70
2018-11-20T15:04:44.851Z,52.70
2018-11-20T15:07:36.752Z,54.50
2018-11-20T15:10:20.356Z,57.30
2018-11-20T15:13:09.757Z,58.60
2018-11-20T15:16:10.650Z,59.00
2018-11-20T15:19:05.494Z,59.60
2018-11-20T15:21:53.122Z,59.70
2018-11-20T15:24:41.837Z,60.00
2018-11-20T15:27:45.976Z,59.80
2018-11-20T15:30:38.029Z,60.60
2018-11-20T15:33:25.938Z,62.20
2018-11-20T15:36:26.879Z,62.40
2018-11-20T15:39:15.820Z,63.10
2018-11-20T15:42:07.690Z,63.90
2018-11-20T15:44:59.609Z,64.20
2018-11-20T15:47:51.940Z,65.10
2018-11-20T15:50:46.577Z,65.80
2018-11-20T15:53:34.105Z,65.60
2018-11-20T15:56:25.652Z,66.30
2018-11-20T15:59:17.238Z,66.90
2018-11-20T16:02:12.140Z,67.40
2018-11-20T16:05:10.147Z,67.80
2018-11-20T16:08:04.842Z,68.60
2018-11-20T16:10:53.924Z,69.10
2018-11-20T16:13:41.665Z,69.60
2018-11-20T16:16:18.232Z,70.30
2018-11-20T16:19:06.119Z,70.80
2018-11-20T16:22:04.317Z,71.50
2018-11-20T16:24:56.337Z,71.50
2018-11-20T16:27:54.443Z,71.50
2018-11-20T16:30:42.197Z,72.10
2018-11-20T16:33:46.302Z,71.90
2018-11-20T16:36:50.182Z,72.60
2018-11-20T16:39:54.529Z,72.20
2018-11-20T16:42:42.179Z,74.20
2018-11-20T16:45:24.957Z,74.30
2018-11-20T16:48:12.300Z,76.60
2018-11-20T16:51:00.095Z,75.90
2018-11-20T16:53:57.914Z,77.70
2018-11-20T16:56:46.803Z,77.50
2018-11-20T16:59:31.802Z,75.60
2018-11-20T17:02:19.428Z,74.30
2018-11-20T17:05:11.333Z,73.70
2018-11-20T17:08:15.113Z,73.80
2018-11-20T17:11:02.927Z,78.30
2018-11-20T17:13:54.374Z,74.50
2018-11-20T17:16:43.394Z,79.10
2018-11-20T17:19:35.313Z,74.90
2018-11-20T17:22:36.228Z,79.80
2018-11-20T17:25:19.494Z,74.60
2018-11-20T17:28:06.941Z,79.30
2018-11-20T17:30:54.788Z,80.60
2018-11-20T17:33:43.715Z,75.00
2018-11-20T17:36:28.210Z,75.50
2018-11-20T17:39:17.846Z,77.40
2018-11-20T17:42:05.619Z,79.70
2018-11-20T17:44:54.707Z,76.60
2018-11-20T17:47:37.729Z,74.70
2018-11-20T17:50:39.755Z,76.60
2018-11-20T17:53:36.170Z,75.50
2018-11-20T17:56:24.256Z,75.20
2018-11-20T17:59:03.255Z,75.20
2018-11-20T18:02:04.301Z,75.50
2018-11-20T18:04:52.012Z,75.70
2018-11-20T18:07:43.911Z,75.80
2018-11-20T18:10:35.631Z,75.80
2018-11-20T18:13:24.804Z,75.50
2018-11-20T18:16:20.021Z,75.30
2018-11-20T18:19:05.663Z,75.60
2018-11-20T18:21:57.419Z,76.10
2018-11-20T18:24:45.160Z,76.40
2018-11-20T18:27:39.207Z,76.30
2018-11-20T18:30:29.863Z,76.20
2018-11-20T18:33:19.086Z,76.50
2018-11-20T18:36:18.608Z,76.60
2018-11-20T18:39:15.021Z,76.50
2018-11-20T18:42:13.088Z,77.40
2018-11-20T18:45:10.950Z,77.10
2018-11-20T18:48:02.507Z,77.20
2018-11-20T18:50:43.341Z,77.40
2018-11-20T18:53:31.220Z,77.50
2018-11-20T18:56:29.103Z,77.70
2018-11-20T18:59:20.746Z,78.10
2018-11-20T19:02:08.113Z,78.40
2018-11-20T19:05:08.729Z,78.50
2018-11-20T19:08:00.528Z,78.20
2018-11-20T19:10:49.492Z,78.40
2018-11-20T19:14:37.542Z,78.20
2018-11-20T19:17:31.244Z,78.30
2018-11-20T19:20:17.988Z,78.70
2018-11-20T19:23:01.002Z,78.90
2018-11-20T19:25:47.889Z,79.10
2018-11-20T19:28:42.007Z,79.20
2018-11-20T19:31:41.888Z,79.30
2018-11-20T19:34:39.089Z,79.30
2018-11-20T19:37:30.003Z,79.40
2018-11-20T19:40:23.983Z,79.50
2018-11-20T19:43:20.762Z,79.60
2018-11-20T19:46:12.117Z,79.90
2018-11-20T19:48:58.745Z,79.70
2018-11-20T19:51:46.919Z,79.80
2018-11-20T19:54:33.852Z,80.00
2018-11-20T19:57:23.570Z,80.00
2018-11-20T20:00:14.271Z,79.80
2018-11-20T20:03:14.675Z,80.00
2018-11-20T20:06:01.915Z,80.20
2018-11-20T20:08:48.545Z,81.00
2018-11-20T20:11:35.332Z,80.70
2018-11-20T20:14:32.530Z,80.30
2018-11-20T20:17:23.268Z,80.30
2018-11-20T20:20:26.764Z,80.50
2018-11-20T20:23:30.019Z,81.00
2018-11-20T20:26:20.810Z,81.90
2018-11-20T20:29:08.937Z,81.70
2018-11-20T20:32:04.213Z,81.60
2018-11-20T20:34:52.337Z,81.30
2018-11-20T20:37:46.411Z,81.20
2018-11-20T20:40:47.249Z,81.50
2018-11-20T20:43:34.390Z,81.90
2018-11-20T20:46:22.557Z,81.40
2018-11-20T20:49:09.498Z,81.40
2018-11-20T20:52:09.512Z,81.50
2018-11-20T20:55:13.285Z,81.60
2018-11-20T20:57:59.942Z,81.90
2018-11-20T21:00:56.821Z,81.90
2018-11-20T21:03:54.087Z,82.30
2018-11-20T21:06:41.003Z,82.20
2018-11-20T21:09:47.438Z,82.20
2018-11-20T21:12:50.932Z,82.30
2018-11-20T21:15:54.145Z,82.30
2018-11-20T21:18:51.637Z,82.10
2018-11-20T21:21:48.536Z,82.40
2018-11-20T21:24:40.275Z,82.50
2018-11-20T21:27:27.212Z,82.80
2018-11-20T21:30:18.057Z,82.90
2018-11-20T21:33:18.188Z,82.90
2018-11-20T21:36:05.032Z,83.60
2018-11-20T21:39:11.360Z,84.00
2018-11-20T21:41:51.280Z,84.20
2018-11-20T21:44:38.231Z,84.40
2018-11-20T21:47:28.976Z,84.70
2018-11-20T21:50:15.762Z,85.40
2018-11-20T21:53:02.678Z,85.40
2018-11-20T21:55:50.778Z,85.30
2018-11-20T21:58:54.639Z,85.10
2018-11-20T22:01:41.448Z,85.00
2018-11-20T22:04:28.393Z,85.00
2018-11-20T22:07:15.414Z,84.80
2018-11-20T22:10:02.212Z,84.70
2018-11-20T22:12:56.606Z,84.80
2018-11-20T22:15:43.730Z,84.50
2018-11-20T22:18:32.603Z,84.60
2018-11-20T22:21:33.004Z,84.90
2018-11-20T22:24:33.115Z,85.30
2018-11-20T22:27:27.183Z,85.30
2018-11-20T22:30:30.412Z,85.40
2018-11-20T22:33:18.534Z,85.70
2018-11-20T22:35:54.501Z,86.00
2018-11-20T22:38:31.510Z,85.90
2018-11-20T22:41:28.653Z,85.90
2018-11-20T22:44:16.805Z,85.80
2018-11-20T22:47:07.829Z,86.00
2018-11-20T22:49:54.687Z,85.50
2018-11-20T22:52:42.828Z,86.00
2018-11-20T22:55:29.787Z,87.10
2018-11-20T22:58:08.990Z,85.50
2018-11-20T23:01:05.019Z,86.20
2018-11-20T23:04:05.266Z,86.00
2018-11-20T23:06:50.702Z,86.30
2018-11-20T23:09:20.016Z,86.50
2018-11-20T23:11:49.178Z,86.40
2018-11-20T23:14:18.174Z,86.10
2018-11-20T23:16:47.166Z,85.90
2018-11-20T23:19:16.162Z,85.80
2018-11-20T23:21:45.128Z,86.00
2018-11-20T23:24:15.115Z,86.20
2018-11-20T23:26:44.250Z,86.40
2018-11-20T23:29:13.278Z,86.90
2018-11-20T23:31:42.605Z,86.60
2018-11-20T23:34:11.813Z,86.80
2018-11-20T23:36:40.894Z,87.30
2018-11-20T23:39:10.320Z,87.20
2018-11-20T23:41:39.294Z,87.90
2018-11-20T23:44:08.239Z,87.00
2018-11-20T23:46:37.436Z,87.40
2018-11-20T23:49:06.392Z,87.20
2018-11-20T23:51:35.381Z,87.50
2018-11-20T23:54:04.365Z,87.50
2018-11-20T23:56:33.489Z,87.40
2018-11-20T23:59:02.439Z,88.40
